Terminal Aerodrome Forecast
Issued by NWS

Home | Current Version | Previous Version | Text Only | Print | Product List | Glossary On
Versions: 1 2 3 4 5 6 7 8 9 10 11 12 13 14 15
000
FTUS43 KJKL 211500 AAA
TAFSME
TAF AMD
KSME 211538Z 2116/2212 27012G22KT P6SM VCSH BKN025 OVC035
     FM212300 30006KT P6SM FEW015 SCT030 SCT250
     FM220800 35003KT P6SM OVC015=

USA.gov is the U.S. government's official web portal to all federal, state and local government web resources and services.